sensor_id;sensor_type;location;lat;lon;timestamp;temperature;humidity
8565;DHT22;4320;51.498;6.556;2023-02-01T00:01:17;6.50;99.90
8565;DHT22;4320;51.498;6.556;2023-02-01T00:03:43;6.60;99.90
8565;DHT22;4320;51.498;6.556;2023-02-01T00:06:09;6.50;99.90
8565;DHT22;4320;51.498;6.556;2023-02-01T00:08:34;6.50;99.90
8565;DHT22;4320;51.498;6.556;2023-02-01T00:11:11;6.60;99.90
8565;DHT22;4320;51.498;6.556;2023-02-01T00:13:39;6.60;99.90
8565;DHT22;4320;51.498;6.556;2023-02-01T00:16:16;6.60;99.90
8565;DHT22;4320;51.498;6.556;2023-02-01T00:18:42;6.60;99.90
8565;DHT22;4320;51.498;6.556;2023-02-01T00:21:10;6.60;99.90
8565;DHT22;4320;51.498;6.556;2023-02-01T00:23:36;6.60;99.90
8565;DHT22;4320;51.498;6.556;2023-02-01T00:26:05;6.70;99.90
8565;DHT22;4320;51.498;6.556;2023-02-01T00:28:31;6.70;99.90
8565;DHT22;4320;51.498;6.556;2023-02-01T00:31:03;6.70;99.90
8565;DHT22;4320;51.498;6.556;2023-02-01T00:33:30;6.70;99.90
8565;DHT22;4320;51.498;6.556;2023-02-01T00:36:05;6.80;99.90
8565;DHT22;4320;51.498;6.556;2023-02-01T00:38:32;6.80;99.90
8565;DHT22;4320;51.498;6.556;2023-02-01T00:41:05;6.80;99.90
8565;DHT22;4320;51.498;6.556;2023-02-01T00:43:32;6.80;99.90
8565;DHT22;4320;51.498;6.556;2023-02-01T00:45:58;6.80;99.90
8565;DHT22;4320;51.498;6.556;2023-02-01T00:48:24;6.80;99.90
8565;DHT22;4320;51.498;6.556;2023-02-01T00:50:49;6.80;99.90
8565;DHT22;4320;51.498;6.556;2023-02-01T00:53:15;6.80;99.90
8565;DHT22;4320;51.498;6.556;2023-02-01T00:55:43;6.80;99.90
8565;DHT22;4320;51.498;6.556;2023-02-01T00:58:09;6.80;99.90
8565;DHT22;4320;51.498;6.556;2023-02-01T01:00:35;6.80;99.90
8565;DHT22;4320;51.498;6.556;2023-02-01T01:03:00;6.80;99.90
8565;DHT22;4320;51.498;6.556;2023-02-01T01:05:26;6.80;99.90
8565;DHT22;4320;51.498;6.556;2023-02-01T01:07:53;6.90;99.90
8565;DHT22;4320;51.498;6.556;2023-02-01T01:10:19;6.80;99.90
8565;DHT22;4320;51.498;6.556;2023-02-01T01:12:44;6.80;99.90
8565;DHT22;4320;51.498;6.556;2023-02-01T01:15:10;6.80;99.90
8565;DHT22;4320;51.498;6.556;2023-02-01T01:17:35;6.80;99.90
8565;DHT22;4320;51.498;6.556;2023-02-01T01:20:02;6.90;99.90
8565;DHT22;4320;51.498;6.556;2023-02-01T01:22:28;6.90;99.90
8565;DHT22;4320;51.498;6.556;2023-02-01T01:24:53;6.90;99.90
8565;DHT22;4320;51.498;6.556;2023-02-01T01:27:19;6.90;99.90
8565;DHT22;4320;51.498;6.556;2023-02-01T01:29:49;6.90;99.90
8565;DHT22;4320;51.498;6.556;2023-02-01T01:32:15;6.80;99.90
8565;DHT22;4320;51.498;6.556;2023-02-01T01:34:40;6.90;99.90
8565;DHT22;4320;51.498;6.556;2023-02-01T01:37:06;6.90;99.90
8565;DHT22;4320;51.498;6.556;2023-02-01T01:39:31;6.90;99.90
8565;DHT22;4320;51.498;6.556;2023-02-01T01:41:57;6.90;99.90
8565;DHT22;4320;51.498;6.556;2023-02-01T01:44:56;6.90;99.90
8565;DHT22;4320;51.498;6.556;2023-02-01T01:47:22;6.90;99.90
8565;DHT22;4320;51.498;6.556;2023-02-01T01:49:47;6.80;99.90
8565;DHT22;4320;51.498;6.556;2023-02-01T01:52:13;6.90;99.90
8565;DHT22;4320;51.498;6.556;2023-02-01T01:54:46;6.80;99.90
8565;DHT22;4320;51.498;6.556;2023-02-01T01:57:18;6.70;99.90
8565;DHT22;4320;51.498;6.556;2023-02-01T01:59:53;6.70;99.90
8565;DHT22;4320;51.498;6.556;2023-02-01T02:02:21;6.70;99.90
8565;DHT22;4320;51.498;6.556;2023-02-01T02:04:47;6.70;99.90
8565;DHT22;4320;51.498;6.556;2023-02-01T02:07:17;6.70;99.90
8565;DHT22;4320;51.498;6.556;2023-02-01T02:09:44;6.60;99.90
8565;DHT22;4320;51.498;6.556;2023-02-01T02:12:10;6.60;99.90
8565;DHT22;4320;51.498;6.556;2023-02-01T02:14:36;6.60;99.90
8565;DHT22;4320;51.498;6.556;2023-02-01T02:25:41;6.40;99.90
8565;DHT22;4320;51.498;6.556;2023-02-01T02:31:16;6.30;99.90
8565;DHT22;4320;51.498;6.556;2023-02-01T02:34:26;6.30;99.90
8565;DHT22;4320;51.498;6.556;2023-02-01T02:39:43;6.30;99.90
8565;DHT22;4320;51.498;6.556;2023-02-01T02:42:29;6.30;99.90
8565;DHT22;4320;51.498;6.556;2023-02-01T02:45:20;6.20;99.90
8565;DHT22;4320;51.498;6.556;2023-02-01T02:48:46;6.10;99.90
8565;DHT22;4320;51.498;6.556;2023-02-01T02:51:19;6.10;99.90
8565;DHT22;4320;51.498;6.556;2023-02-01T02:54:33;6.10;99.90
8565;DHT22;4320;51.498;6.556;2023-02-01T02:57:34;6.10;99.90
8565;DHT22;4320;51.498;6.556;2023-02-01T03:00:21;6.10;99.90
8565;DHT22;4320;51.498;6.556;2023-02-01T03:03:07;6.10;99.90
8565;DHT22;4320;51.498;6.556;2023-02-01T03:05:51;6.10;99.90
8565;DHT22;4320;51.498;6.556;2023-02-01T03:11:02;6.10;99.90
8565;DHT22;4320;51.498;6.556;2023-02-01T03:13:50;6.20;99.90
8565;DHT22;4320;51.498;6.556;2023-02-01T03:19:33;6.20;99.90
8565;DHT22;4320;51.498;6.556;2023-02-01T03:22:06;6.30;99.90
8565;DHT22;4320;51.498;6.556;2023-02-01T03:27:19;6.20;99.90
8565;DHT22;4320;51.498;6.556;2023-02-01T03:29:51;6.30;99.90
8565;DHT22;4320;51.498;6.556;2023-02-01T03:32:20;6.20;99.90
8565;DHT22;4320;51.498;6.556;2023-02-01T03:34:46;6.30;99.90
8565;DHT22;4320;51.498;6.556;2023-02-01T03:37:23;6.30;99.90
8565;DHT22;4320;51.498;6.556;2023-02-01T03:40:02;6.30;99.90
8565;DHT22;4320;51.498;6.556;2023-02-01T03:42:38;6.40;99.90
8565;DHT22;4320;51.498;6.556;2023-02-01T03:47:43;6.40;99.90
8565;DHT22;4320;51.498;6.556;2023-02-01T03:50:12;6.40;99.90
8565;DHT22;4320;51.498;6.556;2023-02-01T03:52:47;6.40;99.90
8565;DHT22;4320;51.498;6.556;2023-02-01T03:55:16;6.40;99.90
8565;DHT22;4320;51.498;6.556;2023-02-01T03:57:50;6.30;99.90
8565;DHT22;4320;51.498;6.556;2023-02-01T04:00:20;6.40;99.90
8565;DHT22;4320;51.498;6.556;2023-02-01T04:02:47;6.40;99.90
8565;DHT22;4320;51.498;6.556;2023-02-01T04:05:13;6.40;99.90
8565;DHT22;4320;51.498;6.556;2023-02-01T04:07:39;6.30;99.90
8565;DHT22;4320;51.498;6.556;2023-02-01T04:10:05;6.30;99.90
8565;DHT22;4320;51.498;6.556;2023-02-01T04:12:30;6.30;99.90
8565;DHT22;4320;51.498;6.556;2023-02-01T04:14:56;6.20;99.90
8565;DHT22;4320;51.498;6.556;2023-02-01T04:17:22;6.20;99.90
8565;DHT22;4320;51.498;6.556;2023-02-01T04:19:47;6.20;99.90
8565;DHT22;4320;51.498;6.556;2023-02-01T04:22:13;6.30;99.90
8565;DHT22;4320;51.498;6.556;2023-02-01T04:24:38;6.30;99.90
8565;DHT22;4320;51.498;6.556;2023-02-01T04:27:04;6.20;99.90
8565;DHT22;4320;51.498;6.556;2023-02-01T04:29:30;6.30;99.90
8565;DHT22;4320;51.498;6.556;2023-02-01T04:31:55;6.20;99.90
8565;DHT22;4320;51.498;6.556;2023-02-01T04:34:21;6.30;99.90
8565;DHT22;4320;51.498;6.556;2023-02-01T04:36:48;6.20;99.90
8565;DHT22;4320;51.498;6.556;2023-02-01T04:39:13;6.30;99.90
8565;DHT22;4320;51.498;6.556;2023-02-01T04:41:39;6.30;99.90
8565;DHT22;4320;51.498;6.556;2023-02-01T04:44:05;6.30;99.90
8565;DHT22;4320;51.498;6.556;2023-02-01T04:46:30;6.30;99.90
8565;DHT22;4320;51.498;6.556;2023-02-01T04:48:56;6.30;99.90
8565;DHT22;4320;51.498;6.556;2023-02-01T04:51:22;6.30;99.90
8565;DHT22;4320;51.498;6.556;2023-02-01T04:53:48;6.20;99.90
8565;DHT22;4320;51.498;6.556;2023-02-01T04:56:13;6.20;99.90
8565;DHT22;4320;51.498;6.556;2023-02-01T04:58:39;6.20;99.90
8565;DHT22;4320;51.498;6.556;2023-02-01T05:01:06;6.20;99.90
8565;DHT22;4320;51.498;6.556;2023-02-01T05:03:32;6.20;99.90
8565;DHT22;4320;51.498;6.556;2023-02-01T05:05:58;6.10;99.90
8565;DHT22;4320;51.498;6.556;2023-02-01T05:08:24;6.20;99.90
8565;DHT22;4320;51.498;6.556;2023-02-01T05:10:51;6.20;99.90
8565;DHT22;4320;51.498;6.556;2023-02-01T05:13:17;6.00;99.90
8565;DHT22;4320;51.498;6.556;2023-02-01T05:16:01;6.10;99.90
8565;DHT22;4320;51.498;6.556;2023-02-01T05:18:27;6.10;99.90
8565;DHT22;4320;51.498;6.556;2023-02-01T05:20:52;6.00;99.90
8565;DHT22;4320;51.498;6.556;2023-02-01T05:23:18;5.90;99.90
8565;DHT22;4320;51.498;6.556;2023-02-01T05:25:43;5.90;99.90
8565;DHT22;4320;51.498;6.556;2023-02-01T05:28:09;5.90;99.90
8565;DHT22;4320;51.498;6.556;2023-02-01T05:30:35;5.90;99.90
8565;DHT22;4320;51.498;6.556;2023-02-01T05:33:01;5.90;99.90
8565;DHT22;4320;51.498;6.556;2023-02-01T05:35:27;5.80;99.90
8565;DHT22;4320;51.498;6.556;2023-02-01T05:37:53;5.90;99.90
8565;DHT22;4320;51.498;6.556;2023-02-01T05:40:18;5.80;99.90
8565;DHT22;4320;51.498;6.556;2023-02-01T05:42:44;5.90;99.90
8565;DHT22;4320;51.498;6.556;2023-02-01T05:45:10;5.80;99.90
8565;DHT22;4320;51.498;6.556;2023-02-01T05:47:36;5.80;99.90
8565;DHT22;4320;51.498;6.556;2023-02-01T05:50:02;5.90;99.90
8565;DHT22;4320;51.498;6.556;2023-02-01T05:52:28;5.90;99.90
8565;DHT22;4320;51.498;6.556;2023-02-01T05:54:53;5.90;99.90
8565;DHT22;4320;51.498;6.556;2023-02-01T05:57:19;6.00;99.90
8565;DHT22;4320;51.498;6.556;2023-02-01T05:59:45;6.00;99.90
8565;DHT22;4320;51.498;6.556;2023-02-01T06:02:16;6.00;99.90
8565;DHT22;4320;51.498;6.556;2023-02-01T06:04:42;6.00;99.90
8565;DHT22;4320;51.498;6.556;2023-02-01T06:07:09;6.10;99.90
8565;DHT22;4320;51.498;6.556;2023-02-01T06:09:35;6.10;99.90
8565;DHT22;4320;51.498;6.556;2023-02-01T06:12:02;6.10;99.90
8565;DHT22;4320;51.498;6.556;2023-02-01T06:14:28;6.10;99.90
8565;DHT22;4320;51.498;6.556;2023-02-01T06:16:54;6.20;99.90
8565;DHT22;4320;51.498;6.556;2023-02-01T06:19:20;6.20;99.90
8565;DHT22;4320;51.498;6.556;2023-02-01T06:21:46;6.20;99.90
8565;DHT22;4320;51.498;6.556;2023-02-01T06:24:12;6.30;99.90
8565;DHT22;4320;51.498;6.556;2023-02-01T06:26:38;6.30;99.90
8565;DHT22;4320;51.498;6.556;2023-02-01T06:29:05;6.30;99.90
8565;DHT22;4320;51.498;6.556;2023-02-01T06:31:32;6.10;99.90
8565;DHT22;4320;51.498;6.556;2023-02-01T06:33:58;6.30;99.90
8565;DHT22;4320;51.498;6.556;2023-02-01T06:36:23;6.30;99.90
8565;DHT22;4320;51.498;6.556;2023-02-01T06:38:49;6.30;99.90
8565;DHT22;4320;51.498;6.556;2023-02-01T06:41:15;6.40;99.90
8565;DHT22;4320;51.498;6.556;2023-02-01T06:43:41;6.40;99.90
8565;DHT22;4320;51.498;6.556;2023-02-01T06:46:11;6.40;99.90
8565;DHT22;4320;51.498;6.556;2023-02-01T06:48:37;6.40;99.90
8565;DHT22;4320;51.498;6.556;2023-02-01T06:51:02;6.30;99.90
8565;DHT22;4320;51.498;6.556;2023-02-01T06:53:28;6.30;99.90
8565;DHT22;4320;51.498;6.556;2023-02-01T06:55:56;6.30;99.90
8565;DHT22;4320;51.498;6.556;2023-02-01T06:58:23;6.40;99.90
8565;DHT22;4320;51.498;6.556;2023-02-01T07:00:49;6.40;99.90
8565;DHT22;4320;51.498;6.556;2023-02-01T07:03:15;6.30;99.90
8565;DHT22;4320;51.498;6.556;2023-02-01T07:05:41;6.40;99.90
8565;DHT22;4320;51.498;6.556;2023-02-01T07:08:07;6.40;99.90
8565;DHT22;4320;51.498;6.556;2023-02-01T07:10:34;6.40;99.90
8565;DHT22;4320;51.498;6.556;2023-02-01T07:13:00;6.40;99.90
8565;DHT22;4320;51.498;6.556;2023-02-01T07:15:26;6.50;99.90
8565;DHT22;4320;51.498;6.556;2023-02-01T07:17:54;6.40;99.90
8565;DHT22;4320;51.498;6.556;2023-02-01T07:20:19;6.50;99.90
8565;DHT22;4320;51.498;6.556;2023-02-01T07:22:45;6.50;99.90
8565;DHT22;4320;51.498;6.556;2023-02-01T07:25:11;6.40;99.90
8565;DHT22;4320;51.498;6.556;2023-02-01T07:27:37;6.40;99.90
8565;DHT22;4320;51.498;6.556;2023-02-01T07:30:04;6.50;99.90
8565;DHT22;4320;51.498;6.556;2023-02-01T07:32:30;6.50;99.90
8565;DHT22;4320;51.498;6.556;2023-02-01T07:34:56;6.40;99.90
8565;DHT22;4320;51.498;6.556;2023-02-01T07:37:22;6.50;99.90
8565;DHT22;4320;51.498;6.556;2023-02-01T07:39:50;6.60;99.90
8565;DHT22;4320;51.498;6.556;2023-02-01T07:42:16;6.60;99.90
8565;DHT22;4320;51.498;6.556;2023-02-01T07:44:41;6.50;99.90
8565;DHT22;4320;51.498;6.556;2023-02-01T07:47:07;6.50;99.90
8565;DHT22;4320;51.498;6.556;2023-02-01T07:49:32;6.60;99.90
8565;DHT22;4320;51.498;6.556;2023-02-01T07:51:58;6.50;99.90
8565;DHT22;4320;51.498;6.556;2023-02-01T07:54:24;6.40;99.90
8565;DHT22;4320;51.498;6.556;2023-02-01T07:56:49;6.50;99.90
8565;DHT22;4320;51.498;6.556;2023-02-01T07:59:15;6.40;99.90
8565;DHT22;4320;51.498;6.556;2023-02-01T08:01:41;6.40;99.90
8565;DHT22;4320;51.498;6.556;2023-02-01T08:04:10;6.40;99.90
8565;DHT22;4320;51.498;6.556;2023-02-01T08:06:37;6.50;99.90
8565;DHT22;4320;51.498;6.556;2023-02-01T08:09:06;6.50;99.90
8565;DHT22;4320;51.498;6.556;2023-02-01T08:11:33;6.60;99.90
8565;DHT22;4320;51.498;6.556;2023-02-01T08:13:59;6.60;99.90
8565;DHT22;4320;51.498;6.556;2023-02-01T08:16:25;6.60;99.90
8565;DHT22;4320;51.498;6.556;2023-02-01T08:18:51;6.60;99.90
8565;DHT22;4320;51.498;6.556;2023-02-01T08:21:25;6.60;99.90
8565;DHT22;4320;51.498;6.556;2023-02-01T08:23:51;6.70;99.90
8565;DHT22;4320;51.498;6.556;2023-02-01T08:26:23;6.60;99.90
8565;DHT22;4320;51.498;6.556;2023-02-01T08:28:55;6.70;99.90
8565;DHT22;4320;51.498;6.556;2023-02-01T08:31:22;6.70;99.90
8565;DHT22;4320;51.498;6.556;2023-02-01T08:33:51;6.70;99.90
8565;DHT22;4320;51.498;6.556;2023-02-01T08:36:17;6.70;99.90
8565;DHT22;4320;51.498;6.556;2023-02-01T08:38:43;6.80;99.90
8565;DHT22;4320;51.498;6.556;2023-02-01T08:41:14;6.80;99.90
8565;DHT22;4320;51.498;6.556;2023-02-01T08:43:40;6.80;99.90
8565;DHT22;4320;51.498;6.556;2023-02-01T08:46:06;6.90;99.90
8565;DHT22;4320;51.498;6.556;2023-02-01T08:48:32;6.90;99.90
8565;DHT22;4320;51.498;6.556;2023-02-01T08:51:04;6.90;99.90
8565;DHT22;4320;51.498;6.556;2023-02-01T08:53:30;7.00;99.90
8565;DHT22;4320;51.498;6.556;2023-02-01T08:55:56;7.00;99.90
8565;DHT22;4320;51.498;6.556;2023-02-01T08:58:21;7.00;99.90
8565;DHT22;4320;51.498;6.556;2023-02-01T09:00:48;6.90;99.90
8565;DHT22;4320;51.498;6.556;2023-02-01T09:03:14;6.90;99.90
8565;DHT22;4320;51.498;6.556;2023-02-01T09:05:39;6.90;99.90
8565;DHT22;4320;51.498;6.556;2023-02-01T09:08:06;6.90;99.90
8565;DHT22;4320;51.498;6.556;2023-02-01T09:10:32;6.90;99.90
8565;DHT22;4320;51.498;6.556;2023-02-01T09:12:57;7.00;99.90
8565;DHT22;4320;51.498;6.556;2023-02-01T09:15:23;7.00;99.90
8565;DHT22;4320;51.498;6.556;2023-02-01T09:17:49;7.00;99.90
8565;DHT22;4320;51.498;6.556;2023-02-01T09:20:15;7.00;99.90
8565;DHT22;4320;51.498;6.556;2023-02-01T09:22:40;7.00;99.90
8565;DHT22;4320;51.498;6.556;2023-02-01T09:25:07;7.10;99.90
8565;DHT22;4320;51.498;6.556;2023-02-01T09:27:33;7.20;99.90
8565;DHT22;4320;51.498;6.556;2023-02-01T09:29:58;7.20;99.90
8565;DHT22;4320;51.498;6.556;2023-02-01T09:32:24;7.30;99.90
8565;DHT22;4320;51.498;6.556;2023-02-01T09:34:51;7.30;99.90
8565;DHT22;4320;51.498;6.556;2023-02-01T09:37:17;7.50;99.90
8565;DHT22;4320;51.498;6.556;2023-02-01T09:39:43;7.60;99.90
8565;DHT22;4320;51.498;6.556;2023-02-01T09:42:25;7.60;99.90
8565;DHT22;4320;51.498;6.556;2023-02-01T09:45:19;7.70;99.90
8565;DHT22;4320;51.498;6.556;2023-02-01T09:47:53;7.80;99.90
8565;DHT22;4320;51.498;6.556;2023-02-01T09:50:32;7.80;99.90
8565;DHT22;4320;51.498;6.556;2023-02-01T09:53:05;7.90;99.90
8565;DHT22;4320;51.498;6.556;2023-02-01T09:55:39;7.90;99.90
8565;DHT22;4320;51.498;6.556;2023-02-01T10:01:24;8.10;99.90
8565;DHT22;4320;51.498;6.556;2023-02-01T10:04:05;8.40;99.90
8565;DHT22;4320;51.498;6.556;2023-02-01T10:07:01;8.80;99.90
8565;DHT22;4320;51.498;6.556;2023-02-01T10:09:52;8.70;99.90
8565;DHT22;4320;51.498;6.556;2023-02-01T10:18:07;8.20;99.90
8565;DHT22;4320;51.498;6.556;2023-02-01T10:21:09;8.20;99.90
8565;DHT22;4320;51.498;6.556;2023-02-01T10:24:02;8.10;99.90
8565;DHT22;4320;51.498;6.556;2023-02-01T10:26:35;8.00;99.90
8565;DHT22;4320;51.498;6.556;2023-02-01T10:29:04;7.90;99.90
8565;DHT22;4320;51.498;6.556;2023-02-01T10:31:37;8.00;99.90
8565;DHT22;4320;51.498;6.556;2023-02-01T10:34:22;8.00;99.90
8565;DHT22;4320;51.498;6.556;2023-02-01T10:37:01;8.20;99.90
8565;DHT22;4320;51.498;6.556;2023-02-01T10:39:27;8.30;99.90
8565;DHT22;4320;51.498;6.556;2023-02-01T10:41:54;8.30;99.90
8565;DHT22;4320;51.498;6.556;2023-02-01T10:44:26;8.20;99.90
8565;DHT22;4320;51.498;6.556;2023-02-01T10:46:53;8.20;99.90
8565;DHT22;4320;51.498;6.556;2023-02-01T10:49:43;8.20;99.90
8565;DHT22;4320;51.498;6.556;2023-02-01T10:52:16;8.20;99.90
8565;DHT22;4320;51.498;6.556;2023-02-01T10:54:42;8.20;99.90
8565;DHT22;4320;51.498;6.556;2023-02-01T10:57:10;8.60;99.90
8565;DHT22;4320;51.498;6.556;2023-02-01T10:59:35;8.90;99.90
8565;DHT22;4320;51.498;6.556;2023-02-01T11:02:26;9.00;99.90
8565;DHT22;4320;51.498;6.556;2023-02-01T11:05:06;8.80;99.90
8565;DHT22;4320;51.498;6.556;2023-02-01T11:07:36;8.70;99.90
8565;DHT22;4320;51.498;6.556;2023-02-01T11:10:02;8.60;99.90
8565;DHT22;4320;51.498;6.556;2023-02-01T11:12:36;8.50;99.90
8565;DHT22;4320;51.498;6.556;2023-02-01T11:17:42;8.40;99.90
8565;DHT22;4320;51.498;6.556;2023-02-01T11:20:20;8.40;99.90
8565;DHT22;4320;51.498;6.556;2023-02-01T11:22:54;8.30;99.90
8565;DHT22;4320;51.498;6.556;2023-02-01T11:25:20;8.30;99.90
8565;DHT22;4320;51.498;6.556;2023-02-01T11:27:49;8.30;99.90
8565;DHT22;4320;51.498;6.556;2023-02-01T11:30:19;8.30;99.90
8565;DHT22;4320;51.498;6.556;2023-02-01T11:32:48;8.30;99.90
8565;DHT22;4320;51.498;6.556;2023-02-01T11:35:20;8.30;99.90
8565;DHT22;4320;51.498;6.556;2023-02-01T11:37:52;8.30;99.90
8565;DHT22;4320;51.498;6.556;2023-02-01T11:47:54;8.10;99.90
8565;DHT22;4320;51.498;6.556;2023-02-01T11:58:46;8.20;99.90
8565;DHT22;4320;51.498;6.556;2023-02-01T12:07:13;8.30;99.90
8565;DHT22;4320;51.498;6.556;2023-02-01T12:10:23;8.30;99.90
8565;DHT22;4320;51.498;6.556;2023-02-01T12:19:28;8.40;99.90
8565;DHT22;4320;51.498;6.556;2023-02-01T12:27:16;8.50;99.90
8565;DHT22;4320;51.498;6.556;2023-02-01T12:30:25;8.40;99.90
8565;DHT22;4320;51.498;6.556;2023-02-01T12:33:07;8.40;99.90
8565;DHT22;4320;51.498;6.556;2023-02-01T12:43:50;8.50;99.90
8565;DHT22;4320;51.498;6.556;2023-02-01T12:46:40;8.50;99.90
8565;DHT22;4320;51.498;6.556;2023-02-01T12:49:16;8.50;99.90
8565;DHT22;4320;51.498;6.556;2023-02-01T12:51:45;8.60;99.90
8565;DHT22;4320;51.498;6.556;2023-02-01T12:54:20;8.60;99.90
8565;DHT22;4320;51.498;6.556;2023-02-01T12:56:54;8.50;99.90
8565;DHT22;4320;51.498;6.556;2023-02-01T12:59:31;8.50;99.90
8565;DHT22;4320;51.498;6.556;2023-02-01T13:02:27;8.40;99.90
8565;DHT22;4320;51.498;6.556;2023-02-01T13:05:17;8.50;99.90
8565;DHT22;4320;51.498;6.556;2023-02-01T13:08:21;8.50;99.90
8565;DHT22;4320;51.498;6.556;2023-02-01T13:10:54;8.50;99.90
8565;DHT22;4320;51.498;6.556;2023-02-01T13:14:01;8.40;99.90
8565;DHT22;4320;51.498;6.556;2023-02-01T13:16:35;8.40;99.90
8565;DHT22;4320;51.498;6.556;2023-02-01T13:19:33;8.40;99.90
8565;DHT22;4320;51.498;6.556;2023-02-01T13:22:10;8.50;99.90
8565;DHT22;4320;51.498;6.556;2023-02-01T13:24:50;8.50;99.90
8565;DHT22;4320;51.498;6.556;2023-02-01T13:27:17;8.50;99.90
8565;DHT22;4320;51.498;6.556;2023-02-01T13:33:29;8.50;99.90
8565;DHT22;4320;51.498;6.556;2023-02-01T13:39:02;8.60;99.90
8565;DHT22;4320;51.498;6.556;2023-02-01T13:41:39;8.70;99.90
8565;DHT22;4320;51.498;6.556;2023-02-01T13:44:15;8.70;99.90
8565;DHT22;4320;51.498;6.556;2023-02-01T13:46:43;8.70;99.90
8565;DHT22;4320;51.498;6.556;2023-02-01T13:49:19;8.70;99.90
8565;DHT22;4320;51.498;6.556;2023-02-01T13:51:48;8.80;99.90
8565;DHT22;4320;51.498;6.556;2023-02-01T13:54:37;8.80;99.90
8565;DHT22;4320;51.498;6.556;2023-02-01T13:57:05;8.90;99.90
8565;DHT22;4320;51.498;6.556;2023-02-01T14:02:45;8.90;99.90
8565;DHT22;4320;51.498;6.556;2023-02-01T14:08:13;8.90;99.90
8565;DHT22;4320;51.498;6.556;2023-02-01T14:10:49;9.00;99.90
8565;DHT22;4320;51.498;6.556;2023-02-01T14:13:32;9.00;99.90
8565;DHT22;4320;51.498;6.556;2023-02-01T14:21:32;9.00;99.90
8565;DHT22;4320;51.498;6.556;2023-02-01T14:24:05;9.10;99.90
8565;DHT22;4320;51.498;6.556;2023-02-01T14:26:54;9.00;99.90
8565;DHT22;4320;51.498;6.556;2023-02-01T14:29:38;9.00;99.90
8565;DHT22;4320;51.498;6.556;2023-02-01T14:32:18;9.10;99.90
8565;DHT22;4320;51.498;6.556;2023-02-01T15:01:15;9.10;99.90
8565;DHT22;4320;51.498;6.556;2023-02-01T15:09:15;9.00;99.90
8565;DHT22;4320;51.498;6.556;2023-02-01T15:14:48;9.10;99.90
8565;DHT22;4320;51.498;6.556;2023-02-01T15:17:30;9.00;99.90
8565;DHT22;4320;51.498;6.556;2023-02-01T15:20:01;9.10;99.90
8565;DHT22;4320;51.498;6.556;2023-02-01T15:22:29;9.00;99.90
8565;DHT22;4320;51.498;6.556;2023-02-01T15:24:59;9.00;99.90
8565;DHT22;4320;51.498;6.556;2023-02-01T15:27:26;9.00;99.90
8565;DHT22;4320;51.498;6.556;2023-02-01T15:29:52;8.90;99.90
8565;DHT22;4320;51.498;6.556;2023-02-01T15:32:37;8.90;99.90
8565;DHT22;4320;51.498;6.556;2023-02-01T15:35:04;8.80;99.90
8565;DHT22;4320;51.498;6.556;2023-02-01T15:37:31;8.90;99.90
8565;DHT22;4320;51.498;6.556;2023-02-01T15:42:57;8.90;99.90
8565;DHT22;4320;51.498;6.556;2023-02-01T15:45:25;8.80;99.90
8565;DHT22;4320;51.498;6.556;2023-02-01T15:47:54;8.80;99.90
8565;DHT22;4320;51.498;6.556;2023-02-01T15:50:21;8.90;99.90
8565;DHT22;4320;51.498;6.556;2023-02-01T15:52:49;8.80;99.90
8565;DHT22;4320;51.498;6.556;2023-02-01T15:55:31;8.80;99.90
8565;DHT22;4320;51.498;6.556;2023-02-01T15:57:59;8.90;99.90
8565;DHT22;4320;51.498;6.556;2023-02-01T16:00:28;8.70;99.90
8565;DHT22;4320;51.498;6.556;2023-02-01T16:03:05;8.80;99.90
8565;DHT22;4320;51.498;6.556;2023-02-01T16:05:42;8.80;99.90
8565;DHT22;4320;51.498;6.556;2023-02-01T16:08:10;8.80;99.90
8565;DHT22;4320;51.498;6.556;2023-02-01T16:10:43;8.60;99.90
8565;DHT22;4320;51.498;6.556;2023-02-01T16:13:10;8.50;99.90
8565;DHT22;4320;51.498;6.556;2023-02-01T16:15:36;8.50;99.90
8565;DHT22;4320;51.498;6.556;2023-02-01T16:18:02;8.50;99.90
8565;DHT22;4320;51.498;6.556;2023-02-01T16:20:27;8.50;99.90
8565;DHT22;4320;51.498;6.556;2023-02-01T16:22:53;8.50;99.90
8565;DHT22;4320;51.498;6.556;2023-02-01T16:25:18;8.60;99.90
8565;DHT22;4320;51.498;6.556;2023-02-01T16:27:44;8.60;99.90
8565;DHT22;4320;51.498;6.556;2023-02-01T16:30:10;8.70;99.90
8565;DHT22;4320;51.498;6.556;2023-02-01T16:32:37;8.60;99.90
8565;DHT22;4320;51.498;6.556;2023-02-01T16:35:21;8.60;99.90
8565;DHT22;4320;51.498;6.556;2023-02-01T16:37:48;8.60;99.90
8565;DHT22;4320;51.498;6.556;2023-02-01T16:40:15;8.50;99.90
8565;DHT22;4320;51.498;6.556;2023-02-01T16:42:40;8.60;99.90
8565;DHT22;4320;51.498;6.556;2023-02-01T16:45:07;8.60;99.90
8565;DHT22;4320;51.498;6.556;2023-02-01T16:47:36;8.70;99.90
8565;DHT22;4320;51.498;6.556;2023-02-01T16:50:03;8.70;99.90
8565;DHT22;4320;51.498;6.556;2023-02-01T16:52:29;8.70;99.90
8565;DHT22;4320;51.498;6.556;2023-02-01T16:54:54;8.70;99.90
8565;DHT22;4320;51.498;6.556;2023-02-01T16:57:21;8.70;99.90
8565;DHT22;4320;51.498;6.556;2023-02-01T16:59:48;8.90;99.90
8565;DHT22;4320;51.498;6.556;2023-02-01T17:02:17;8.80;99.90
8565;DHT22;4320;51.498;6.556;2023-02-01T17:04:44;8.80;99.90
8565;DHT22;4320;51.498;6.556;2023-02-01T17:07:15;8.90;99.90
8565;DHT22;4320;51.498;6.556;2023-02-01T17:09:41;8.80;99.90
8565;DHT22;4320;51.498;6.556;2023-02-01T17:12:21;8.60;99.90
8565;DHT22;4320;51.498;6.556;2023-02-01T17:14:47;8.80;99.90
8565;DHT22;4320;51.498;6.556;2023-02-01T17:17:13;8.80;99.90
8565;DHT22;4320;51.498;6.556;2023-02-01T17:19:38;8.80;99.90
8565;DHT22;4320;51.498;6.556;2023-02-01T17:22:04;8.80;99.90
8565;DHT22;4320;51.498;6.556;2023-02-01T17:24:31;8.70;99.90
8565;DHT22;4320;51.498;6.556;2023-02-01T17:26:56;8.80;99.90
8565;DHT22;4320;51.498;6.556;2023-02-01T17:29:23;8.80;99.90
8565;DHT22;4320;51.498;6.556;2023-02-01T17:31:51;8.80;99.90
8565;DHT22;4320;51.498;6.556;2023-02-01T17:34:17;8.80;99.90
8565;DHT22;4320;51.498;6.556;2023-02-01T17:36:47;8.80;99.90
8565;DHT22;4320;51.498;6.556;2023-02-01T17:39:14;8.70;99.90
8565;DHT22;4320;51.498;6.556;2023-02-01T17:42:00;8.70;99.90
8565;DHT22;4320;51.498;6.556;2023-02-01T17:44:26;8.70;99.90
8565;DHT22;4320;51.498;6.556;2023-02-01T17:46:52;8.70;99.90
8565;DHT22;4320;51.498;6.556;2023-02-01T17:49:17;8.60;99.90
8565;DHT22;4320;51.498;6.556;2023-02-01T17:51:43;8.60;99.90
8565;DHT22;4320;51.498;6.556;2023-02-01T17:54:16;8.60;99.90
8565;DHT22;4320;51.498;6.556;2023-02-01T17:56:44;8.70;99.90
8565;DHT22;4320;51.498;6.556;2023-02-01T17:59:11;8.60;99.90
8565;DHT22;4320;51.498;6.556;2023-02-01T18:01:37;8.70;99.90
8565;DHT22;4320;51.498;6.556;2023-02-01T18:04:03;8.70;99.90
8565;DHT22;4320;51.498;6.556;2023-02-01T18:06:32;8.60;99.90
8565;DHT22;4320;51.498;6.556;2023-02-01T18:08:59;8.60;99.90
8565;DHT22;4320;51.498;6.556;2023-02-01T18:11:24;8.50;99.90
8565;DHT22;4320;51.498;6.556;2023-02-01T18:13:51;8.60;99.90
8565;DHT22;4320;51.498;6.556;2023-02-01T18:16:28;8.70;99.90
8565;DHT22;4320;51.498;6.556;2023-02-01T18:18:54;8.70;99.90
8565;DHT22;4320;51.498;6.556;2023-02-01T18:21:33;8.70;99.90
8565;DHT22;4320;51.498;6.556;2023-02-01T18:24:02;8.70;99.90
8565;DHT22;4320;51.498;6.556;2023-02-01T18:26:28;8.60;99.90
8565;DHT22;4320;51.498;6.556;2023-02-01T18:28:54;8.60;99.90
8565;DHT22;4320;51.498;6.556;2023-02-01T18:31:24;8.60;99.90
8565;DHT22;4320;51.498;6.556;2023-02-01T18:33:52;8.60;99.90
8565;DHT22;4320;51.498;6.556;2023-02-01T18:36:18;8.60;99.90
8565;DHT22;4320;51.498;6.556;2023-02-01T18:38:44;8.60;99.90
8565;DHT22;4320;51.498;6.556;2023-02-01T18:41:17;8.70;99.90
8565;DHT22;4320;51.498;6.556;2023-02-01T18:43:45;8.70;99.90
8565;DHT22;4320;51.498;6.556;2023-02-01T18:46:10;8.70;99.90
8565;DHT22;4320;51.498;6.556;2023-02-01T18:48:36;8.60;99.90
8565;DHT22;4320;51.498;6.556;2023-02-01T18:51:02;8.60;99.90
8565;DHT22;4320;51.498;6.556;2023-02-01T18:53:28;8.60;99.90